Terminal Aerodrome Forecast
Issued by NWS Mt. Holly, NJ

Home | Current Version | Previous Version | Text Only | Print | Product List | Glossary On
Versions: 1 2 3 4 5 6 7 8 9 10 11 12 13 14 15 16 17 18 19 20 21 22
000
FTUS41 KPHI 301723
TAFABE
TAF
KABE 301723Z 3018/3118 19010G18KT P6SM VCSH BKN050
     FM310000 20008KT P6SM SCT050 BKN100
     FM311000 20005KT 4SM BR BKN010
     FM311400 20005KT P6SM VCSH SCT020 BKN040
      TEMPO 3114/3117 4SM SHRA OVC035
     FM311700 22008KT P6SM -SHRA BKN050=

USA.gov is the U.S. government's official web portal to all federal, state and local government web resources and services.